sensor_id;sensor_type;location;lat;lon;timestamp;pressure;altitude;pressure_sealevel;temperature;humidity
11099;BME280;12223;42.650;23.364;2022-09-16T00:01:09;94228.44;;;21.98;59.87
11099;BME280;12223;42.650;23.364;2022-09-16T00:03:37;94223.84;;;21.99;60.40
11099;BME280;12223;42.650;23.364;2022-09-16T00:06:05;94221.47;;;21.84;62.59
11099;BME280;12223;42.650;23.364;2022-09-16T00:08:34;94230.16;;;21.67;62.89
11099;BME280;12223;42.650;23.364;2022-09-16T00:11:01;94224.19;;;21.56;64.23
11099;BME280;12223;42.650;23.364;2022-09-16T00:13:28;94210.97;;;21.60;63.52
11099;BME280;12223;42.650;23.364;2022-09-16T00:15:55;94218.94;;;21.10;67.18
11099;BME280;12223;42.650;23.364;2022-09-16T00:18:21;94218.41;;;20.81;67.99
11099;BME280;12223;42.650;23.364;2022-09-16T00:20:50;94223.97;;;20.71;68.02
11099;BME280;12223;42.650;23.364;2022-09-16T00:23:19;94216.34;;;20.92;67.00
11099;BME280;12223;42.650;23.364;2022-09-16T00:25:50;94219.06;;;21.19;66.24
11099;BME280;12223;42.650;23.364;2022-09-16T00:31:39;94222.81;;;21.32;63.84
11099;BME280;12223;42.650;23.364;2022-09-16T00:34:06;94210.69;;;21.34;64.21
11099;BME280;12223;42.650;23.364;2022-09-16T00:36:33;94232.28;;;21.15;67.43
11099;BME280;12223;42.650;23.364;2022-09-16T00:38:59;94205.19;;;21.12;65.91
11099;BME280;12223;42.650;23.364;2022-09-16T00:41:29;94210.25;;;21.00;68.36
11099;BME280;12223;42.650;23.364;2022-09-16T00:43:59;94209.50;;;21.26;64.87
11099;BME280;12223;42.650;23.364;2022-09-16T00:46:31;94233.59;;;21.18;66.96
11099;BME280;12223;42.650;23.364;2022-09-16T00:49:02;94230.63;;;20.87;68.73
11099;BME280;12223;42.650;23.364;2022-09-16T00:51:31;94236.38;;;20.80;69.30
11099;BME280;12223;42.650;23.364;2022-09-16T00:54:00;94228.75;;;20.74;67.82
11099;BME280;12223;42.650;23.364;2022-09-16T00:56:32;94227.63;;;20.75;68.59
11099;BME280;12223;42.650;23.364;2022-09-16T00:59:03;94225.34;;;20.68;69.95
11099;BME280;12223;42.650;23.364;2022-09-16T01:01:33;94236.16;;;20.63;71.36
11099;BME280;12223;42.650;23.364;2022-09-16T01:04:03;94238.56;;;20.65;71.63
11099;BME280;12223;42.650;23.364;2022-09-16T01:06:35;94241.75;;;20.67;71.93
11099;BME280;12223;42.650;23.364;2022-09-16T01:09:03;94227.25;;;20.81;71.53
11099;BME280;12223;42.650;23.364;2022-09-16T01:11:31;94230.63;;;20.73;71.23
11099;BME280;12223;42.650;23.364;2022-09-16T01:13:59;94239.03;;;20.53;73.11
11099;BME280;12223;42.650;23.364;2022-09-16T01:16:43;94228.00;;;20.55;72.63
11099;BME280;12223;42.650;23.364;2022-09-16T01:19:24;94228.81;;;20.36;76.76
11099;BME280;12223;42.650;23.364;2022-09-16T01:22:07;94248.34;;;20.42;74.77
11099;BME280;12223;42.650;23.364;2022-09-16T01:24:51;94243.16;;;20.45;74.02
11099;BME280;12223;42.650;23.364;2022-09-16T01:28:03;94241.50;;;20.31;76.66
11099;BME280;12223;42.650;23.364;2022-09-16T01:30:47;94250.53;;;20.02;78.01
11099;BME280;12223;42.650;23.364;2022-09-16T01:33:28;94252.97;;;19.99;78.50
11099;BME280;12223;42.650;23.364;2022-09-16T01:36:05;94237.75;;;20.13;76.47
11099;BME280;12223;42.650;23.364;2022-09-16T01:38:51;94223.13;;;20.57;72.51
11099;BME280;12223;42.650;23.364;2022-09-16T01:41:26;94226.53;;;20.76;69.66
11099;BME280;12223;42.650;23.364;2022-09-16T01:44:02;94222.31;;;20.56;73.39
11099;BME280;12223;42.650;23.364;2022-09-16T01:46:37;94227.31;;;20.63;72.40
11099;BME280;12223;42.650;23.364;2022-09-16T01:49:15;94220.78;;;20.36;74.19
11099;BME280;12223;42.650;23.364;2022-09-16T01:58:30;94241.84;;;20.24;76.26
11099;BME280;12223;42.650;23.364;2022-09-16T02:01:04;94217.97;;;20.60;76.75
11099;BME280;12223;42.650;23.364;2022-09-16T02:03:35;94219.78;;;20.32;74.92
11099;BME280;12223;42.650;23.364;2022-09-16T02:06:07;94232.06;;;20.52;73.50
11099;BME280;12223;42.650;23.364;2022-09-16T02:08:39;94222.69;;;20.36;74.17
11099;BME280;12223;42.650;23.364;2022-09-16T02:11:09;94204.31;;;20.24;75.58
11099;BME280;12223;42.650;23.364;2022-09-16T02:13:39;94213.50;;;20.69;71.20
11099;BME280;12223;42.650;23.364;2022-09-16T02:16:11;94207.38;;;20.82;69.87
11099;BME280;12223;42.650;23.364;2022-09-16T02:18:43;94212.97;;;20.86;69.85
11099;BME280;12223;42.650;23.364;2022-09-16T02:21:15;94214.91;;;20.80;70.58
11099;BME280;12223;42.650;23.364;2022-09-16T02:23:45;94221.47;;;20.61;73.57
11099;BME280;12223;42.650;23.364;2022-09-16T02:26:16;94213.50;;;20.69;73.12
11099;BME280;12223;42.650;23.364;2022-09-16T02:28:47;94198.13;;;20.61;72.74
11099;BME280;12223;42.650;23.364;2022-09-16T02:31:18;94222.22;;;20.48;75.71
11099;BME280;12223;42.650;23.364;2022-09-16T02:33:53;94225.66;;;20.67;75.02
11099;BME280;12223;42.650;23.364;2022-09-16T02:36:23;94228.44;;;20.43;76.44
11099;BME280;12223;42.650;23.364;2022-09-16T02:38:54;94235.03;;;20.32;81.00
11099;BME280;12223;42.650;23.364;2022-09-16T02:41:23;94226.88;;;20.23;80.37
11099;BME280;12223;42.650;23.364;2022-09-16T02:43:50;94238.69;;;20.22;81.44
11099;BME280;12223;42.650;23.364;2022-09-16T02:46:21;94235.31;;;20.30;78.35
11099;BME280;12223;42.650;23.364;2022-09-16T02:49:00;94231.31;;;20.14;81.89
11099;BME280;12223;42.650;23.364;2022-09-16T02:51:33;94234.56;;;20.11;80.46
11099;BME280;12223;42.650;23.364;2022-09-16T02:54:08;94233.72;;;19.97;85.91
11099;BME280;12223;42.650;23.364;2022-09-16T02:56:38;94232.91;;;19.96;85.25
11099;BME280;12223;42.650;23.364;2022-09-16T02:59:07;94238.75;;;19.80;84.40
11099;BME280;12223;42.650;23.364;2022-09-16T03:01:38;94239.22;;;19.87;84.75
11099;BME280;12223;42.650;23.364;2022-09-16T03:04:08;94236.44;;;19.92;84.87
11099;BME280;12223;42.650;23.364;2022-09-16T03:06:35;94254.56;;;20.00;85.20
11099;BME280;12223;42.650;23.364;2022-09-16T03:09:05;94251.44;;;20.12;83.16
11099;BME280;12223;42.650;23.364;2022-09-16T03:11:58;94255.16;;;20.16;82.02
11099;BME280;12223;42.650;23.364;2022-09-16T03:14:45;94258.03;;;20.19;81.93
11099;BME280;12223;42.650;23.364;2022-09-16T03:17:32;94261.22;;;20.21;81.63
11099;BME280;12223;42.650;23.364;2022-09-16T03:20:11;94263.41;;;20.19;81.51
11099;BME280;12223;42.650;23.364;2022-09-16T03:22:47;94266.50;;;20.26;80.73
11099;BME280;12223;42.650;23.364;2022-09-16T03:25:27;94259.19;;;20.32;80.48
11099;BME280;12223;42.650;23.364;2022-09-16T03:28:01;94260.63;;;20.24;81.04
11099;BME280;12223;42.650;23.364;2022-09-16T03:30:31;94257.47;;;20.41;80.52
11099;BME280;12223;42.650;23.364;2022-09-16T03:33:04;94257.00;;;20.53;79.47
11099;BME280;12223;42.650;23.364;2022-09-16T03:35:40;94246.88;;;20.63;81.82
11099;BME280;12223;42.650;23.364;2022-09-16T03:38:10;94246.28;;;20.53;79.74
11099;BME280;12223;42.650;23.364;2022-09-16T03:40:38;94234.56;;;20.49;79.54
11099;BME280;12223;42.650;23.364;2022-09-16T03:43:09;94247.13;;;20.34;81.82
11099;BME280;12223;42.650;23.364;2022-09-16T03:45:36;94253.41;;;20.06;86.25
11099;BME280;12223;42.650;23.364;2022-09-16T03:48:05;94229.78;;;20.08;86.25
11099;BME280;12223;42.650;23.364;2022-09-16T03:50:31;94225.56;;;20.21;87.99
11099;BME280;12223;42.650;23.364;2022-09-16T03:53:00;94229.16;;;19.97;87.38
11099;BME280;12223;42.650;23.364;2022-09-16T03:55:27;94242.41;;;19.89;88.00
11099;BME280;12223;42.650;23.364;2022-09-16T03:57:55;94227.19;;;20.03;87.59
11099;BME280;12223;42.650;23.364;2022-09-16T04:00:22;94227.25;;;20.17;85.53
11099;BME280;12223;42.650;23.364;2022-09-16T04:02:49;94233.78;;;20.11;84.83
11099;BME280;12223;42.650;23.364;2022-09-16T04:05:16;94229.13;;;20.16;81.95
11099;BME280;12223;42.650;23.364;2022-09-16T04:07:42;94246.06;;;20.30;80.23
11099;BME280;12223;42.650;23.364;2022-09-16T04:10:11;94261.06;;;20.13;82.92
11099;BME280;12223;42.650;23.364;2022-09-16T04:12:37;94276.88;;;20.14;83.39
11099;BME280;12223;42.650;23.364;2022-09-16T04:15:05;94280.06;;;20.16;83.52
11099;BME280;12223;42.650;23.364;2022-09-16T04:17:32;94282.09;;;20.05;83.68
11099;BME280;12223;42.650;23.364;2022-09-16T04:20:16;94274.63;;;20.02;82.79
11099;BME280;12223;42.650;23.364;2022-09-16T04:22:42;94280.91;;;20.30;81.99
11099;BME280;12223;42.650;23.364;2022-09-16T04:25:11;94277.59;;;20.38;81.13
11099;BME280;12223;42.650;23.364;2022-09-16T04:27:37;94293.03;;;20.46;79.74
11099;BME280;12223;42.650;23.364;2022-09-16T04:30:05;94295.06;;;20.55;80.37
11099;BME280;12223;42.650;23.364;2022-09-16T04:32:33;94301.66;;;20.43;82.97
11099;BME280;12223;42.650;23.364;2022-09-16T04:34:59;94290.34;;;20.28;86.13
11099;BME280;12223;42.650;23.364;2022-09-16T04:37:29;94304.06;;;20.07;89.14
11099;BME280;12223;42.650;23.364;2022-09-16T04:39:55;94286.00;;;20.13;88.83
11099;BME280;12223;42.650;23.364;2022-09-16T04:42:23;94281.59;;;20.03;88.82
11099;BME280;12223;42.650;23.364;2022-09-16T04:44:50;94274.63;;;20.21;88.02
11099;BME280;12223;42.650;23.364;2022-09-16T04:47:17;94284.41;;;20.31;87.39
11099;BME280;12223;42.650;23.364;2022-09-16T04:49:44;94284.28;;;20.41;86.02
11099;BME280;12223;42.650;23.364;2022-09-16T04:52:10;94285.91;;;20.56;85.55
11099;BME280;12223;42.650;23.364;2022-09-16T04:54:37;94289.34;;;20.75;84.95
11099;BME280;12223;42.650;23.364;2022-09-16T04:57:04;94290.81;;;21.13;81.54
11099;BME280;12223;42.650;23.364;2022-09-16T04:59:32;94296.66;;;21.48;78.33
11099;BME280;12223;42.650;23.364;2022-09-16T05:01:59;94292.97;;;21.71;77.51
11099;BME280;12223;42.650;23.364;2022-09-16T05:04:25;94293.25;;;22.33;73.40
11099;BME280;12223;42.650;23.364;2022-09-16T05:06:52;94287.81;;;22.82;70.19
11099;BME280;12223;42.650;23.364;2022-09-16T05:09:19;94284.22;;;23.49;66.33
11099;BME280;12223;42.650;23.364;2022-09-16T05:11:47;94293.13;;;24.23;63.01
11099;BME280;12223;42.650;23.364;2022-09-16T05:14:15;94279.16;;;24.47;59.86
11099;BME280;12223;42.650;23.364;2022-09-16T05:16:44;94281.50;;;25.09;57.32
11099;BME280;12223;42.650;23.364;2022-09-16T05:19:12;94273.66;;;26.30;53.53
11099;BME280;12223;42.650;23.364;2022-09-16T05:21:40;94282.94;;;27.60;49.88
11099;BME280;12223;42.650;23.364;2022-09-16T05:24:09;94278.22;;;28.98;46.45
11099;BME280;12223;42.650;23.364;2022-09-16T05:26:38;94258.50;;;30.27;42.84
11099;BME280;12223;42.650;23.364;2022-09-16T05:29:09;94256.72;;;31.73;39.54
11099;BME280;12223;42.650;23.364;2022-09-16T05:31:37;94269.09;;;33.02;36.77
11099;BME280;12223;42.650;23.364;2022-09-16T05:34:10;94271.81;;;34.20;34.23
11099;BME280;12223;42.650;23.364;2022-09-16T05:36:38;94272.75;;;35.18;33.08
11099;BME280;12223;42.650;23.364;2022-09-16T05:39:06;94268.22;;;36.14;31.32
11099;BME280;12223;42.650;23.364;2022-09-16T05:41:33;94271.72;;;36.53;30.59
11099;BME280;12223;42.650;23.364;2022-09-16T05:44:00;94271.78;;;36.29;30.34
11099;BME280;12223;42.650;23.364;2022-09-16T05:46:27;94256.28;;;35.14;31.25
11099;BME280;12223;42.650;23.364;2022-09-16T05:48:54;94267.91;;;34.21;31.62
11099;BME280;12223;42.650;23.364;2022-09-16T05:51:23;94270.72;;;33.80;32.47
11099;BME280;12223;42.650;23.364;2022-09-16T05:53:51;94262.47;;;34.24;31.51
11099;BME280;12223;42.650;23.364;2022-09-16T05:56:20;94277.78;;;34.98;30.17
11099;BME280;12223;42.650;23.364;2022-09-16T05:58:50;94275.66;;;35.71;29.16
11099;BME280;12223;42.650;23.364;2022-09-16T06:01:19;94271.72;;;36.64;28.49
11099;BME280;12223;42.650;23.364;2022-09-16T06:03:47;94267.81;;;37.52;26.95
11099;BME280;12223;42.650;23.364;2022-09-16T06:06:17;94260.38;;;38.01;25.05
11099;BME280;12223;42.650;23.364;2022-09-16T06:08:48;94255.47;;;38.26;23.48
11099;BME280;12223;42.650;23.364;2022-09-16T06:11:15;94274.47;;;38.99;22.28
11099;BME280;12223;42.650;23.364;2022-09-16T06:13:42;94273.25;;;39.64;21.57
11099;BME280;12223;42.650;23.364;2022-09-16T06:16:10;94275.94;;;40.45;20.49
11099;BME280;12223;42.650;23.364;2022-09-16T06:21:40;94275.25;;;40.61;19.52
11099;BME280;12223;42.650;23.364;2022-09-16T06:24:10;94268.69;;;39.51;19.92
11099;BME280;12223;42.650;23.364;2022-09-16T06:26:39;94261.00;;;37.71;22.02
11099;BME280;12223;42.650;23.364;2022-09-16T06:29:07;94250.38;;;36.93;22.46
11099;BME280;12223;42.650;23.364;2022-09-16T06:31:34;94263.50;;;36.25;23.48
11099;BME280;12223;42.650;23.364;2022-09-16T06:34:02;94258.75;;;35.58;24.11
11099;BME280;12223;42.650;23.364;2022-09-16T06:36:30;94241.31;;;34.90;24.66
11099;BME280;12223;42.650;23.364;2022-09-16T06:38:57;94259.88;;;34.49;25.88
11099;BME280;12223;42.650;23.364;2022-09-16T06:41:26;94257.47;;;33.86;26.21
11099;BME280;12223;42.650;23.364;2022-09-16T06:43:53;94265.31;;;33.13;27.20
11099;BME280;12223;42.650;23.364;2022-09-16T06:46:21;94259.63;;;32.92;27.78
11099;BME280;12223;42.650;23.364;2022-09-16T06:48:49;94265.88;;;31.84;28.14
11099;BME280;12223;42.650;23.364;2022-09-16T06:51:17;94267.66;;;31.31;29.56
11099;BME280;12223;42.650;23.364;2022-09-16T06:53:44;94266.59;;;30.97;30.11
11099;BME280;12223;42.650;23.364;2022-09-16T06:56:16;94260.63;;;30.18;30.73
11099;BME280;12223;42.650;23.364;2022-09-16T06:58:46;94268.72;;;29.20;32.14
11099;BME280;12223;42.650;23.364;2022-09-16T07:01:15;94260.59;;;29.67;32.39
11099;BME280;12223;42.650;23.364;2022-09-16T07:03:43;94260.97;;;29.97;32.40
11099;BME280;12223;42.650;23.364;2022-09-16T07:06:11;94263.88;;;30.23;31.92
11099;BME280;12223;42.650;23.364;2022-09-16T07:08:39;94268.75;;;29.67;32.64
11099;BME280;12223;42.650;23.364;2022-09-16T07:11:09;94276.75;;;30.07;31.56
11099;BME280;12223;42.650;23.364;2022-09-16T07:13:36;94269.88;;;29.82;31.87
11099;BME280;12223;42.650;23.364;2022-09-16T07:16:06;94281.91;;;29.81;31.82
11099;BME280;12223;42.650;23.364;2022-09-16T07:18:33;94263.91;;;29.61;33.73
11099;BME280;12223;42.650;23.364;2022-09-16T07:21:01;94261.16;;;29.13;32.96
11099;BME280;12223;42.650;23.364;2022-09-16T07:23:29;94274.97;;;28.40;34.56
11099;BME280;12223;42.650;23.364;2022-09-16T07:26:00;94277.97;;;28.11;34.92
11099;BME280;12223;42.650;23.364;2022-09-16T07:28:27;94255.66;;;28.30;34.51
11099;BME280;12223;42.650;23.364;2022-09-16T07:30:54;94265.25;;;28.52;34.93
11099;BME280;12223;42.650;23.364;2022-09-16T07:33:22;94258.28;;;28.02;35.52
11099;BME280;12223;42.650;23.364;2022-09-16T07:35:49;94257.88;;;27.76;36.34
11099;BME280;12223;42.650;23.364;2022-09-16T07:38:16;94257.78;;;26.61;38.10
11099;BME280;12223;42.650;23.364;2022-09-16T07:40:42;94260.28;;;26.66;38.64
11099;BME280;12223;42.650;23.364;2022-09-16T07:43:09;94249.72;;;26.11;39.53
11099;BME280;12223;42.650;23.364;2022-09-16T07:45:46;94226.91;;;26.74;38.90
11099;BME280;12223;42.650;23.364;2022-09-16T07:48:13;94228.41;;;26.84;38.80
11099;BME280;12223;42.650;23.364;2022-09-16T07:50:41;94225.44;;;27.10;38.77
11099;BME280;12223;42.650;23.364;2022-09-16T07:53:08;94234.63;;;27.42;38.53
11099;BME280;12223;42.650;23.364;2022-09-16T07:55:34;94229.81;;;27.59;38.71
11099;BME280;12223;42.650;23.364;2022-09-16T07:58:01;94228.41;;;27.17;38.19
11099;BME280;12223;42.650;23.364;2022-09-16T08:00:28;94237.13;;;26.90;38.87
11099;BME280;12223;42.650;23.364;2022-09-16T08:02:56;94224.81;;;27.37;37.84
11099;BME280;12223;42.650;23.364;2022-09-16T08:05:23;94216.34;;;27.99;37.25
11099;BME280;12223;42.650;23.364;2022-09-16T08:07:51;94212.66;;;28.32;36.32
11099;BME280;12223;42.650;23.364;2022-09-16T08:10:18;94217.03;;;27.84;37.01
11099;BME280;12223;42.650;23.364;2022-09-16T08:12:46;94210.59;;;28.41;36.78
11099;BME280;12223;42.650;23.364;2022-09-16T08:15:12;94214.19;;;28.73;36.41
11099;BME280;12223;42.650;23.364;2022-09-16T08:17:39;94220.72;;;28.56;36.22
11099;BME280;12223;42.650;23.364;2022-09-16T08:20:06;94210.91;;;28.52;36.95
11099;BME280;12223;42.650;23.364;2022-09-16T08:22:33;94212.25;;;28.46;36.61
11099;BME280;12223;42.650;23.364;2022-09-16T08:25:02;94194.81;;;28.47;37.52
11099;BME280;12223;42.650;23.364;2022-09-16T08:27:29;94196.84;;;28.22;36.48
11099;BME280;12223;42.650;23.364;2022-09-16T08:29:55;94203.69;;;28.44;36.67
11099;BME280;12223;42.650;23.364;2022-09-16T08:32:22;94200.59;;;29.16;36.13
11099;BME280;12223;42.650;23.364;2022-09-16T08:34:49;94196.66;;;29.30;35.05
11099;BME280;12223;42.650;23.364;2022-09-16T08:37:15;94200.00;;;29.23;36.20
11099;BME280;12223;42.650;23.364;2022-09-16T08:39:42;94196.81;;;28.90;35.54
11099;BME280;12223;42.650;23.364;2022-09-16T08:42:28;94188.25;;;29.19;35.42
11099;BME280;12223;42.650;23.364;2022-09-16T08:45:05;94190.38;;;29.57;35.14
11099;BME280;12223;42.650;23.364;2022-09-16T08:47:42;94172.41;;;30.03;34.25
11099;BME280;12223;42.650;23.364;2022-09-16T08:53:37;94163.34;;;29.99;34.03
11099;BME280;12223;42.650;23.364;2022-09-16T08:56:10;94175.56;;;29.89;34.02
11099;BME280;12223;42.650;23.364;2022-09-16T08:58:43;94164.88;;;29.81;34.05
11099;BME280;12223;42.650;23.364;2022-09-16T09:01:16;94174.16;;;29.95;34.61
11099;BME280;12223;42.650;23.364;2022-09-16T09:03:45;94175.13;;;30.03;34.96
11099;BME280;12223;42.650;23.364;2022-09-16T09:06:22;94171.72;;;29.75;35.15
11099;BME280;12223;42.650;23.364;2022-09-16T09:09:01;94148.34;;;29.07;35.52
11099;BME280;12223;42.650;23.364;2022-09-16T09:14:55;94169.47;;;29.14;35.79
11099;BME280;12223;42.650;23.364;2022-09-16T09:17:36;94177.34;;;28.88;37.23
11099;BME280;12223;42.650;23.364;2022-09-16T09:23:39;94190.06;;;28.71;37.85
11099;BME280;12223;42.650;23.364;2022-09-16T09:26:17;94190.16;;;28.87;38.32
11099;BME280;12223;42.650;23.364;2022-09-16T09:32:07;94138.63;;;28.35;39.00
11099;BME280;12223;42.650;23.364;2022-09-16T09:34:47;94156.81;;;28.19;40.06
11099;BME280;12223;42.650;23.364;2022-09-16T09:40:48;94174.13;;;28.02;39.55
11099;BME280;12223;42.650;23.364;2022-09-16T09:43:20;94171.28;;;28.11;38.68
11099;BME280;12223;42.650;23.364;2022-09-16T09:45:55;94177.25;;;28.28;39.04
11099;BME280;12223;42.650;23.364;2022-09-16T09:48:29;94189.75;;;28.05;37.31
11099;BME280;12223;42.650;23.364;2022-09-16T09:51:00;94184.47;;;27.84;38.15
11099;BME280;12223;42.650;23.364;2022-09-16T09:53:41;94187.16;;;27.84;38.74
11099;BME280;12223;42.650;23.364;2022-09-16T09:56:17;94186.34;;;27.96;37.85
11099;BME280;12223;42.650;23.364;2022-09-16T10:05:21;94200.81;;;28.52;37.97
11099;BME280;12223;42.650;23.364;2022-09-16T10:07:50;94209.13;;;28.44;38.44
11099;BME280;12223;42.650;23.364;2022-09-16T10:10:21;94223.38;;;28.40;39.45
11099;BME280;12223;42.650;23.364;2022-09-16T10:12:49;94230.50;;;27.69;40.77
11099;BME280;12223;42.650;23.364;2022-09-16T10:15:20;94247.13;;;27.55;41.08
11099;BME280;12223;42.650;23.364;2022-09-16T10:17:48;94252.56;;;27.22;42.20
11099;BME280;12223;42.650;23.364;2022-09-16T10:20:26;94258.22;;;27.17;42.68
11099;BME280;12223;42.650;23.364;2022-09-16T10:22:57;94288.81;;;26.85;44.44
11099;BME280;12223;42.650;23.364;2022-09-16T10:25:24;94311.94;;;26.82;44.32
11099;BME280;12223;42.650;23.364;2022-09-16T10:27:55;94334.75;;;26.60;45.33
11099;BME280;12223;42.650;23.364;2022-09-16T10:30:22;94351.50;;;25.57;55.12
11099;BME280;12223;42.650;23.364;2022-09-16T10:32:51;94404.53;;;25.06;64.41
11099;BME280;12223;42.650;23.364;2022-09-16T10:38:47;94414.13;;;23.99;79.39
11099;BME280;12223;42.650;23.364;2022-09-16T10:41:16;94394.00;;;23.65;81.83
11099;BME280;12223;42.650;23.364;2022-09-16T10:43:47;94419.63;;;23.54;89.51
11099;BME280;12223;42.650;23.364;2022-09-16T10:46:16;94392.19;;;23.30;93.10
11099;BME280;12223;42.650;23.364;2022-09-16T10:48:44;94429.56;;;23.45;98.06
11099;BME280;12223;42.650;23.364;2022-09-16T10:51:21;94412.53;;;23.36;100.00
11099;BME280;12223;42.650;23.364;2022-09-16T10:53:52;94420.59;;;23.36;100.00
11099;BME280;12223;42.650;23.364;2022-09-16T10:56:22;94411.78;;;23.22;100.00
11099;BME280;12223;42.650;23.364;2022-09-16T10:59:00;94401.16;;;23.17;100.00
11099;BME280;12223;42.650;23.364;2022-09-16T11:01:35;94375.44;;;22.89;100.00
11099;BME280;12223;42.650;23.364;2022-09-16T11:04:31;94365.56;;;22.84;100.00
11099;BME280;12223;42.650;23.364;2022-09-16T11:07:09;94354.13;;;22.78;97.99
11099;BME280;12223;42.650;23.364;2022-09-16T11:09:44;94344.19;;;22.65;99.65
11099;BME280;12223;42.650;23.364;2022-09-16T11:12:32;94321.84;;;22.65;97.67
11099;BME280;12223;42.650;23.364;2022-09-16T11:15:11;94294.59;;;22.80;94.33
11099;BME280;12223;42.650;23.364;2022-09-16T11:17:51;94296.22;;;22.90;89.56
11099;BME280;12223;42.650;23.364;2022-09-16T11:23:29;94269.22;;;23.74;78.74
11099;BME280;12223;42.650;23.364;2022-09-16T11:26:06;94267.53;;;24.12;70.01
11099;BME280;12223;42.650;23.364;2022-09-16T11:29:02;94245.81;;;24.60;65.05
11099;BME280;12223;42.650;23.364;2022-09-16T11:31:39;94231.47;;;24.94;60.92
11099;BME280;12223;42.650;23.364;2022-09-16T11:34:18;94223.09;;;25.25;56.44
11099;BME280;12223;42.650;23.364;2022-09-16T11:36:58;94216.78;;;25.59;55.65
11099;BME280;12223;42.650;23.364;2022-09-16T11:39:40;94218.81;;;25.91;50.52
11099;BME280;12223;42.650;23.364;2022-09-16T11:42:16;94211.69;;;26.08;48.76
11099;BME280;12223;42.650;23.364;2022-09-16T11:44:47;94210.13;;;26.48;48.22
11099;BME280;12223;42.650;23.364;2022-09-16T11:50:17;94199.22;;;27.02;45.12
11099;BME280;12223;42.650;23.364;2022-09-16T11:52:59;94193.56;;;26.95;42.67
11099;BME280;12223;42.650;23.364;2022-09-16T11:55:37;94190.28;;;26.89;42.34
11099;BME280;12223;42.650;23.364;2022-09-16T11:58:19;94187.34;;;26.94;50.63
11099;BME280;12223;42.650;23.364;2022-09-16T12:00:48;94189.63;;;26.59;59.83
11099;BME280;12223;42.650;23.364;2022-09-16T12:03:24;94190.44;;;25.39;69.20
11099;BME280;12223;42.650;23.364;2022-09-16T12:05:57;94190.66;;;25.34;72.46
11099;BME280;12223;42.650;23.364;2022-09-16T12:08:31;94179.03;;;24.95;71.58
11099;BME280;12223;42.650;23.364;2022-09-16T12:11:03;94189.41;;;24.76;66.33
11099;BME280;12223;42.650;23.364;2022-09-16T12:13:38;94186.88;;;24.71;60.84
11099;BME280;12223;42.650;23.364;2022-09-16T12:16:08;94200.88;;;24.64;63.03
11099;BME280;12223;42.650;23.364;2022-09-16T12:18:40;94205.78;;;24.62;62.09
11099;BME280;12223;42.650;23.364;2022-09-16T12:21:12;94196.22;;;24.73;62.00
11099;BME280;12223;42.650;23.364;2022-09-16T12:23:45;94207.91;;;25.12;59.98
11099;BME280;12223;42.650;23.364;2022-09-16T12:26:18;94191.75;;;25.33;61.94
11099;BME280;12223;42.650;23.364;2022-09-16T12:28:50;94225.75;;;24.87;68.35
11099;BME280;12223;42.650;23.364;2022-09-16T12:31:25;94238.84;;;24.42;71.67
11099;BME280;12223;42.650;23.364;2022-09-16T12:33:59;94230.91;;;24.20;77.53
11099;BME280;12223;42.650;23.364;2022-09-16T12:43:40;94216.66;;;23.14;98.63
11099;BME280;12223;42.650;23.364;2022-09-16T12:46:42;94229.59;;;22.95;100.00
11099;BME280;12223;42.650;23.364;2022-09-16T12:49:47;94245.88;;;22.90;100.00
11099;BME280;12223;42.650;23.364;2022-09-16T12:52:30;94255.84;;;22.90;100.00
11099;BME280;12223;42.650;23.364;2022-09-16T12:58:33;94270.06;;;23.43;98.67
11099;BME280;12223;42.650;23.364;2022-09-16T13:01:15;94291.69;;;23.52;99.13
11099;BME280;12223;42.650;23.364;2022-09-16T13:03:47;94296.94;;;23.35;99.21
11099;BME280;12223;42.650;23.364;2022-09-16T13:06:26;94301.69;;;23.29;100.00
11099;BME280;12223;42.650;23.364;2022-09-16T13:08:54;94300.44;;;23.27;100.00
11099;BME280;12223;42.650;23.364;2022-09-16T13:11:23;94298.19;;;22.98;100.00
11099;BME280;12223;42.650;23.364;2022-09-16T13:13:53;94326.97;;;22.89;100.00
11099;BME280;12223;42.650;23.364;2022-09-16T13:16:29;94321.19;;;22.59;100.00
11099;BME280;12223;42.650;23.364;2022-09-16T13:19:34;94333.66;;;22.55;100.00
11099;BME280;12223;42.650;23.364;2022-09-16T13:22:12;94327.78;;;22.17;100.00
11099;BME280;12223;42.650;23.364;2022-09-16T13:24:43;94329.13;;;22.06;100.00
11099;BME280;12223;42.650;23.364;2022-09-16T13:30:34;94316.00;;;22.27;100.00
11099;BME280;12223;42.650;23.364;2022-09-16T13:35:47;94304.56;;;22.57;100.00
11099;BME280;12223;42.650;23.364;2022-09-16T13:38:34;94297.22;;;22.49;100.00
11099;BME280;12223;42.650;23.364;2022-09-16T13:41:03;94265.25;;;22.34;100.00
11099;BME280;12223;42.650;23.364;2022-09-16T13:43:33;94245.22;;;22.40;100.00
11099;BME280;12223;42.650;23.364;2022-09-16T13:46:03;94214.31;;;22.15;100.00
11099;BME280;12223;42.650;23.364;2022-09-16T13:48:34;94187.19;;;21.89;100.00
11099;BME280;12223;42.650;23.364;2022-09-16T13:51:08;94152.13;;;21.94;100.00
11099;BME280;12223;42.650;23.364;2022-09-16T13:53:38;94136.75;;;22.09;100.00
11099;BME280;12223;42.650;23.364;2022-09-16T13:56:29;94126.25;;;21.98;100.00
11099;BME280;12223;42.650;23.364;2022-09-16T13:59:06;94150.47;;;21.98;100.00
11099;BME280;12223;42.650;23.364;2022-09-16T14:01:38;94148.09;;;21.83;100.00
11099;BME280;12223;42.650;23.364;2022-09-16T14:04:09;94151.44;;;22.02;100.00
11099;BME280;12223;42.650;23.364;2022-09-16T14:06:52;94158.22;;;22.22;100.00
11099;BME280;12223;42.650;23.364;2022-09-16T14:09:34;94182.91;;;22.24;100.00
11099;BME280;12223;42.650;23.364;2022-09-16T14:12:12;94191.75;;;22.47;100.00
11099;BME280;12223;42.650;23.364;2022-09-16T14:14:40;94204.66;;;22.59;100.00